Time;durP1;ratioP1;P1;durP2;ratioP2;P2;SDS_P1;SDS_P2;PMS_P1;PMS_P2;Temp;Humidity;BMP_temperature;BMP_pressure;BME280_temperature;BME280_humidity;BME280_pressure;Samples;Min_cycle;Max_cycle;Signal;HPM_P1;HPM_P2
2021/11/18 00:00:15;;;;;;;;;;;;;;;15.16;70.76;102266.59;1052200;28;1068;-63
2021/11/18 00:01:05;;;;;;;;;;;;;;;15.15;71.13;102259.47;1052448;28;720;-63
2021/11/18 00:02:01;;;;;;;;;;;;;;;15.15;70.82;102267.53;1052176;28;753;-62
2021/11/18 00:02:51;;;;;;;;;;;;;;;15.15;71.08;102272.91;1051795;28;1250;-63
2021/11/18 00:03:42;;;;;;;;;;;;;;;15.16;71.09;102282.69;1053520;28;672;-63
2021/11/18 00:04:32;;;;;;;;;;;;;;;15.17;70.39;102287.09;1052489;28;626;-63
2021/11/18 00:05:23;;;;;;;;;;;;;;;15.16;70.90;102285.38;1052446;28;669;-64
2021/11/18 00:06:13;;;;;;;;;;;;;;;15.15;70.47;102289.03;1052288;28;760;-64
2021/11/18 00:07:03;;;;;;;;;;;;;;;15.15;70.63;102283.66;1052488;28;732;-64
2021/11/18 00:07:54;;;;;;;;;;;;;;;15.16;71.06;102288.94;1052280;28;708;-61
2021/11/18 00:08:44;;;;;;;;;;;;;;;15.14;70.54;102282.78;1052422;28;701;-61
2021/11/18 00:09:35;;;;;;;;;;;;;;;15.13;70.57;102288.25;1052221;28;687;-62
2021/11/18 00:10:25;;;;;;;;;;;;;;;15.13;70.95;102294.47;1052255;28;728;-62
2021/11/18 00:11:16;;;;;;;;;;;;;;;15.12;71.13;102286.53;1052492;28;618;-62
2021/11/18 00:12:06;;;;;;;;;;;;;;;15.13;70.71;102294.47;1052303;28;626;-62
2021/11/18 00:12:57;;;;;;;;;;;;;;;15.13;70.65;102296.31;1051620;28;642;-62
2021/11/18 00:13:48;;;;;;;;;;;;;;;15.12;71.13;102295.44;1052183;28;646;-62
2021/11/18 00:14:38;;;;;;;;;;;;;;;15.12;71.08;102286.53;1052255;28;843;-62
2021/11/18 00:15:28;;;;;;;;;;;;;;;15.11;70.88;102293.72;1052297;28;701;-62
2021/11/18 00:16:19;;;;;;;;;;;;;;;15.11;71.04;102282.09;1052110;28;1674;-62
2021/11/18 00:17:09;;;;;;;;;;;;;;;15.11;71.21;102282.09;1052879;28;1790;-62
2021/11/18 00:18:00;;;;;;;;;;;;;;;15.11;70.71;102279.41;1052559;28;732;-62
2021/11/18 00:18:51;;;;;;;;;;;;;;;15.10;70.99;102275.88;1053392;28;859;-62
2021/11/18 00:19:41;;;;;;;;;;;;;;;15.10;70.76;102275.00;1051872;28;625;-62
2021/11/18 00:20:32;;;;;;;;;;;;;;;15.09;71.37;102281.31;1052020;28;670;-62
2021/11/18 00:21:22;;;;;;;;;;;;;;;15.09;70.94;102275.97;1051764;28;788;-63
2021/11/18 00:22:12;;;;;;;;;;;;;;;15.09;70.98;102276.81;1051960;28;731;-63
2021/11/18 00:23:03;;;;;;;;;;;;;;;15.10;70.39;102275.88;1051571;28;874;-63
2021/11/18 00:23:53;;;;;;;;;;;;;;;15.09;70.57;102273.28;1051907;28;770;-63
2021/11/18 00:24:44;;;;;;;;;;;;;;;15.09;70.52;102271.44;1052020;28;787;-63
2021/11/18 00:25:34;;;;;;;;;;;;;;;15.09;71.08;102257.16;1051794;28;701;-63
2021/11/18 00:26:24;;;;;;;;;;;;;;;15.07;70.84;102259.94;1051802;28;794;-62
2021/11/18 00:27:15;;;;;;;;;;;;;;;15.08;70.34;102256.28;1051548;28;865;-62
2021/11/18 00:28:05;;;;;;;;;;;;;;;15.07;70.94;102249.19;1051969;28;789;-63
2021/11/18 00:28:56;;;;;;;;;;;;;;;15.07;70.80;102243.81;1051556;28;622;-63
2021/11/18 00:29:46;;;;;;;;;;;;;;;15.08;70.99;102250.06;1051765;28;717;-62
2021/11/18 00:30:37;;;;;;;;;;;;;;;15.09;70.68;102252.66;1051951;28;643;-62
2021/11/18 00:31:27;;;;;;;;;;;;;;;15.09;70.63;102257.16;1051459;28;918;-63
2021/11/18 00:32:17;;;;;;;;;;;;;;;15.09;70.57;102251.78;1053428;28;1920;-63
2021/11/18 00:33:08;;;;;;;;;;;;;;;15.09;70.62;102249.09;1056397;28;848;-63
2021/11/18 00:33:58;;;;;;;;;;;;;;;15.07;71.00;102242.97;1056510;28;770;-62
2021/11/18 00:34:49;;;;;;;;;;;;;;;15.06;70.98;102246.59;1056846;28;713;-62
2021/11/18 00:35:39;;;;;;;;;;;;;;;15.05;70.91;102250.28;1056480;28;750;-62
2021/11/18 00:36:30;;;;;;;;;;;;;;;15.05;70.54;102245.75;1052219;28;682;-63
2021/11/18 00:37:20;;;;;;;;;;;;;;;15.06;70.98;102249.28;1051331;28;1897;-62
2021/11/18 00:38:10;;;;;;;;;;;;;;;15.04;70.61;102238.69;1057728;28;799;-62
2021/11/18 00:39:03;;;;;;;;;;;;;;;15.06;70.79;102249.28;1056418;28;769;-61
2021/11/18 00:39:53;;;;;;;;;;;;;;;15.04;70.91;102249.41;1056657;28;986;-62
2021/11/18 00:40:44;;;;;;;;;;;;;;;15.05;70.71;102244.91;1057661;28;728;-62
2021/11/18 00:41:34;;;;;;;;;;;;;;;15.06;70.28;102251.97;1056586;28;929;-63
2021/11/18 00:42:25;;;;;;;;;;;;;;;15.05;70.69;102248.44;1056719;28;1029;-62
2021/11/18 00:43:15;;;;;;;;;;;;;;;15.05;70.42;102245.75;1056527;28;733;-62
2021/11/18 00:44:06;;;;;;;;;;;;;;;15.03;70.90;102253.06;1056720;28;773;-62
2021/11/18 00:44:57;;;;;;;;;;;;;;;15.03;70.32;102253.06;1056004;28;795;-62
2021/11/18 00:45:47;;;;;;;;;;;;;;;15.04;71.02;102253.91;1056594;28;851;-63
2021/11/18 00:46:38;;;;;;;;;;;;;;;15.04;70.47;102259.28;1054816;28;1570;-63
2021/11/18 00:47:28;;;;;;;;;;;;;;;15.04;70.44;102257.47;1056424;28;695;-63
2021/11/18 00:48:19;;;;;;;;;;;;;;;15.03;71.23;102257.56;1056419;28;1727;-63
2021/11/18 00:49:10;;;;;;;;;;;;;;;15.02;71.09;102258.50;1055206;28;1781;-63
2021/11/18 00:50:00;;;;;;;;;;;;;;;15.02;70.30;102248.66;1056576;28;928;-62
2021/11/18 00:50:51;;;;;;;;;;;;;;;15.03;70.42;102260.25;1057484;28;1234;-63
2021/11/18 00:51:43;;;;;;;;;;;;;;;15.03;69.90;102257.56;1056564;28;905;-63
2021/11/18 00:52:33;;;;;;;;;;;;;;;15.01;70.70;102256.78;1056661;28;890;-62
2021/11/18 00:53:24;;;;;;;;;;;;;;;15.02;70.84;102261.19;1056354;28;728;-62
2021/11/18 00:54:15;;;;;;;;;;;;;;;15.02;70.12;102258.50;1056315;28;792;-62
2021/11/18 00:55:05;;;;;;;;;;;;;;;15.02;70.92;102261.19;1051862;28;825;-64
2021/11/18 00:55:56;;;;;;;;;;;;;;;15.02;70.32;102261.19;1053145;28;658;-63
2021/11/18 00:56:46;;;;;;;;;;;;;;;15.01;70.42;102264.84;1056901;28;629;-63
2021/11/18 00:57:36;;;;;;;;;;;;;;;15.00;71.00;102263.97;1051722;28;1893;-63
2021/11/18 00:58:27;;;;;;;;;;;;;;;15.01;70.92;102270.22;1051061;28;866;-63
2021/11/18 00:59:17;;;;;;;;;;;;;;;15.00;70.80;102273.84;1057519;28;749;-63
2021/11/18 01:00:08;;;;;;;;;;;;;;;15.00;70.30;102273.84;1056735;28;744;-63
2021/11/18 01:00:58;;;;;;;;;;;;;;;15.00;70.51;102268.47;1056298;28;781;-63
2021/11/18 01:01:50;;;;;;;;;;;;;;;14.99;70.02;102272.97;1056475;28;693;-62
2021/11/18 01:02:40;;;;;;;;;;;;;;;15.00;70.23;102273.84;1056233;28;826;-62
2021/11/18 01:03:31;;;;;;;;;;;;;;;14.98;70.68;102282.00;1056648;28;665;-60
2021/11/18 01:04:21;;;;;;;;;;;;;;;14.98;70.29;102281.13;1056571;28;975;-62
2021/11/18 01:05:13;;;;;;;;;;;;;;;15.00;70.21;102284.59;1056613;28;711;-62
2021/11/18 01:06:03;;;;;;;;;;;;;;;14.99;70.74;102277.50;1056636;28;755;-62
2021/11/18 01:06:54;;;;;;;;;;;;;;;14.99;70.54;102282.84;1056701;28;847;-62
2021/11/18 01:07:44;;;;;;;;;;;;;;;14.99;70.56;102285.53;1056523;28;686;-62
2021/11/18 01:08:35;;;;;;;;;;;;;;;14.98;70.76;102286.50;1056561;28;969;-62
2021/11/18 01:09:25;;;;;;;;;;;;;;;14.98;70.54;102281.13;1056444;28;729;-62
2021/11/18 01:10:15;;;;;;;;;;;;;;;14.97;70.42;102284.78;1056536;28;695;-62
2021/11/18 01:11:06;;;;;;;;;;;;;;;14.96;70.74;102288.41;1056204;28;920;-62
2021/11/18 01:11:56;;;;;;;;;;;;;;;14.96;70.29;102288.41;1056547;28;726;-62
2021/11/18 01:12:47;;;;;;;;;;;;;;;14.96;70.34;102293.78;1056470;28;1041;-62
2021/11/18 01:13:37;;;;;;;;;;;;;;;14.96;70.53;102296.47;1056368;28;696;-62
2021/11/18 01:14:27;;;;;;;;;;;;;;;14.95;70.97;102295.59;1056632;28;693;-62
2021/11/18 01:15:18;;;;;;;;;;;;;;;14.96;70.26;102299.16;1056150;28;921;-61
2021/11/18 01:16:08;;;;;;;;;;;;;;;14.97;70.36;102304.41;1055324;28;1661;-61
2021/11/18 01:16:59;;;;;;;;;;;;;;;14.94;70.55;102292.03;1052505;28;812;-61
2021/11/18 01:17:49;;;;;;;;;;;;;;;14.94;70.53;102297.41;1052215;28;704;-61
2021/11/18 01:18:40;;;;;;;;;;;;;;;14.94;70.51;102302.78;1052926;28;669;-62
2021/11/18 01:19:31;;;;;;;;;;;;;;;14.96;69.95;102300.00;1052212;28;845;-62
2021/11/18 01:20:24;;;;;;;;;;;;;;;14.95;70.41;102303.66;1052564;28;816;-62
2021/11/18 01:21:15;;;;;;;;;;;;;;;14.97;70.34;102306.25;1052094;28;797;-62
2021/11/18 01:22:06;;;;;;;;;;;;;;;14.96;70.51;102300.00;1052250;28;716;-62
2021/11/18 01:22:57;;;;;;;;;;;;;;;14.94;69.94;102301.91;1052469;28;756;-61
2021/11/18 01:23:47;;;;;;;;;;;;;;;14.93;70.78;102305.56;1052158;28;781;-61
2021/11/18 01:24:37;;;;;;;;;;;;;;;14.91;70.74;102297.59;1052345;28;665;-61
2021/11/18 01:25:28;;;;;;;;;;;;;;;14.91;70.00;102302.97;1052022;28;927;-62
2021/11/18 01:26:18;;;;;;;;;;;;;;;14.91;70.49;102300.28;1052105;28;816;-61
2021/11/18 01:27:09;;;;;;;;;;;;;;;14.91;70.27;102311.00;1052443;28;721;-61
2021/11/18 01:27:59;;;;;;;;;;;;;;;14.92;70.03;102304.69;1052985;28;926;-61
2021/11/18 01:28:50;;;;;;;;;;;;;;;14.92;70.45;102310.06;1052918;28;643;-61
2021/11/18 01:29:40;;;;;;;;;;;;;;;14.90;70.88;102311.97;1052957;28;749;-61
2021/11/18 01:30:31;;;;;;;;;;;;;;;14.91;70.90;102302.97;1053176;28;669;-61
2021/11/18 01:31:21;;;;;;;;;;;;;;;14.91;70.65;102311.00;1053025;28;677;-59
2021/11/18 01:32:12;;;;;;;;;;;;;;;14.91;69.94;102308.31;1053153;28;904;-61
2021/11/18 01:33:03;;;;;;;;;;;;;;;14.90;70.35;102300.38;1053020;28;801;-61
2021/11/18 01:33:53;;;;;;;;;;;;;;;14.88;70.38;102300.47;1052758;28;2357;-61
2021/11/18 01:34:44;;;;;;;;;;;;;;;14.89;70.74;102304.88;1053361;28;714;-61
2021/11/18 01:35:34;;;;;;;;;;;;;;;14.90;69.97;102301.22;1049210;28;724;-60
2021/11/18 01:36:25;;;;;;;;;;;;;;;14.89;70.44;102310.25;1049729;28;703;-62
2021/11/18 01:37:15;;;;;;;;;;;;;;;14.89;70.24;102307.56;1054614;28;679;-61
2021/11/18 01:38:05;;;;;;;;;;;;;;;14.90;70.36;102311.09;1052919;28;2068;-62
2021/11/18 01:38:56;;;;;;;;;;;;;;;14.89;70.59;102309.38;1053492;28;700;-62
2021/11/18 01:39:46;;;;;;;;;;;;;;;14.89;70.52;102310.25;1052529;28;689;-61
2021/11/18 01:40:37;;;;;;;;;;;;;;;14.88;70.11;102316.56;1052693;28;668;-61
2021/11/18 01:41:27;;;;;;;;;;;;;;;14.87;70.60;102311.28;1052421;28;758;-61
2021/11/18 01:42:18;;;;;;;;;;;;;;;14.86;70.61;102307.75;1052518;28;734;-61
2021/11/18 01:43:09;;;;;;;;;;;;;;;14.87;70.04;102314.81;1052280;28;788;-61
2021/11/18 01:43:59;;;;;;;;;;;;;;;14.86;70.22;102309.59;1052479;28;745;-61
2021/11/18 01:44:50;;;;;;;;;;;;;;;14.86;70.73;102302.41;1052710;28;772;-61
2021/11/18 01:45:40;;;;;;;;;;;;;;;14.86;70.44;102297.03;1052358;28;705;-61
2021/11/18 01:46:31;;;;;;;;;;;;;;;14.88;70.60;102294.22;1052471;28;1642;-61
2021/11/18 01:47:22;;;;;;;;;;;;;;;14.88;70.01;102299.59;1052571;28;747;-61
2021/11/18 01:48:12;;;;;;;;;;;;;;;14.86;70.27;102291.66;1047874;28;786;-61
2021/11/18 01:49:02;;;;;;;;;;;;;;;14.87;70.52;102298.72;1049218;28;732;-61
2021/11/18 01:49:53;;;;;;;;;;;;;;;14.85;70.83;102300.66;1052857;28;766;-61
2021/11/18 01:50:43;;;;;;;;;;;;;;;14.85;70.39;102300.66;1053492;28;1271;-61
2021/11/18 01:51:34;;;;;;;;;;;;;;;14.85;70.40;102297.97;1053698;28;665;-61
2021/11/18 01:52:24;;;;;;;;;;;;;;;14.85;70.17;102300.66;1053547;28;811;-62
2021/11/18 01:53:15;;;;;;;;;;;;;;;14.86;70.61;102302.41;1053622;28;698;-62
2021/11/18 01:54:05;;;;;;;;;;;;;;;14.86;70.10;102309.59;1053478;28;775;-62
2021/11/18 01:54:56;;;;;;;;;;;;;;;14.85;69.85;102297.97;1053574;28;857;-62
2021/11/18 01:55:46;;;;;;;;;;;;;;;14.85;70.44;102297.97;1053479;28;745;-62
2021/11/18 01:56:37;;;;;;;;;;;;;;;14.85;70.55;102297.97;1053593;28;904;-62
2021/11/18 01:57:27;;;;;;;;;;;;;;;14.85;70.42;102299.81;1054202;28;1989;-62
2021/11/18 01:58:18;;;;;;;;;;;;;;;14.85;70.57;102297.13;1056876;28;784;-62
2021/11/18 01:59:09;;;;;;;;;;;;;;;14.85;70.13;102302.47;1056854;28;1740;-61
2021/11/18 01:59:59;;;;;;;;;;;;;;;14.85;70.41;102308.72;1052929;28;730;-62
2021/11/18 02:00:50;;;;;;;;;;;;;;;14.85;70.75;102310.53;1052622;28;1042;-62
2021/11/18 02:01:40;;;;;;;;;;;;;;;14.85;70.22;102308.72;1052256;28;682;-62
2021/11/18 02:02:31;;;;;;;;;;;;;;;14.84;70.56;102312.34;1052450;28;685;-62
2021/11/18 02:03:21;;;;;;;;;;;;;;;14.85;69.84;102318.59;1052232;28;729;-62
2021/11/18 02:04:12;;;;;;;;;;;;;;;14.86;69.88;102310.44;1052384;28;759;-62
2021/11/18 02:05:02;;;;;;;;;;;;;;;14.85;70.36;102313.22;1052204;28;938;-62
2021/11/18 02:05:52;;;;;;;;;;;;;;;14.84;70.42;102306.97;1052460;28;722;-63
2021/11/18 02:06:43;;;;;;;;;;;;;;;14.85;70.29;102313.22;1052113;28;665;-62
2021/11/18 02:07:33;;;;;;;;;;;;;;;14.84;70.25;102317.72;1052264;28;830;-62
2021/11/18 02:08:24;;;;;;;;;;;;;;;14.84;70.66;102322.22;1052519;28;741;-63
2021/11/18 02:09:14;;;;;;;;;;;;;;;14.82;70.16;102322.31;1052248;28;810;-62
2021/11/18 02:10:05;;;;;;;;;;;;;;;14.81;70.03;102320.59;1052533;28;755;-62
2021/11/18 02:10:55;;;;;;;;;;;;;;;14.83;70.46;102323.19;1052265;28;711;-63
2021/11/18 02:11:46;;;;;;;;;;;;;;;14.83;70.41;102321.34;1052622;28;833;-63
2021/11/18 02:12:36;;;;;;;;;;;;;;;14.82;70.36;102325.00;1051976;28;913;-61
2021/11/18 02:13:26;;;;;;;;;;;;;;;14.82;70.53;102325.00;1052320;28;834;-62
2021/11/18 02:14:17;;;;;;;;;;;;;;;14.81;70.36;102317.91;1052014;28;730;-62
2021/11/18 02:15:07;;;;;;;;;;;;;;;14.83;70.06;102325.88;1052294;28;606;-62
2021/11/18 02:15:58;;;;;;;;;;;;;;;14.83;70.36;102321.34;1052490;28;810;-62
2021/11/18 02:16:48;;;;;;;;;;;;;;;14.82;70.36;102318.75;1052247;28;669;-62
2021/11/18 02:17:39;;;;;;;;;;;;;;;14.80;70.49;102318.84;1052777;28;1909;-62
2021/11/18 02:18:29;;;;;;;;;;;;;;;14.82;70.27;102325.00;1052676;28;776;-62
2021/11/18 02:19:19;;;;;;;;;;;;;;;14.82;70.02;102316.09;1052855;28;810;-62
2021/11/18 02:20:10;;;;;;;;;;;;;;;14.80;70.04;102326.03;1052588;28;1074;-62
2021/11/18 02:21:00;;;;;;;;;;;;;;;14.81;70.29;102327.78;1052929;28;734;-62
2021/11/18 02:21:51;;;;;;;;;;;;;;;14.79;70.50;102314.44;1054197;28;1921;-63
2021/11/18 02:22:41;;;;;;;;;;;;;;;14.79;70.63;102322.50;1052816;28;625;-62
2021/11/18 02:23:32;;;;;;;;;;;;;;;14.79;69.91;102318.94;1052821;28;732;-62
2021/11/18 02:24:22;;;;;;;;;;;;;;;14.80;70.45;102324.22;1052752;28;774;-62
2021/11/18 02:25:12;;;;;;;;;;;;;;;14.81;70.31;102325.09;1052882;28;767;-62
2021/11/18 02:26:03;;;;;;;;;;;;;;;14.78;70.67;102327.94;1052969;28;934;-63
2021/11/18 02:26:53;;;;;;;;;;;;;;;14.78;70.59;102323.44;1049000;28;689;-63
2021/11/18 02:27:44;;;;;;;;;;;;;;;14.78;70.56;102322.56;1047897;28;911;-63
2021/11/18 02:28:34;;;;;;;;;;;;;;;14.78;70.63;102326.13;1051858;28;690;-63
2021/11/18 02:29:24;;;;;;;;;;;;;;;14.78;70.55;102327.94;1053050;28;741;-63
2021/11/18 02:30:15;;;;;;;;;;;;;;;14.78;69.96;102315.38;1052528;28;795;-63
2021/11/18 02:31:05;;;;;;;;;;;;;;;14.78;69.76;102328.81;1052785;28;779;-62
2021/11/18 02:31:56;;;;;;;;;;;;;;;14.78;69.91;102318.06;1052984;28;696;-62
2021/11/18 02:32:46;;;;;;;;;;;;;;;14.78;70.55;102318.06;1052707;28;630;-63
2021/11/18 02:33:36;;;;;;;;;;;;;;;14.78;70.24;102318.06;1052970;28;672;-63
2021/11/18 02:34:27;;;;;;;;;;;;;;;14.77;70.23;102313.66;1052475;28;831;-63
2021/11/18 02:35:18;;;;;;;;;;;;;;;14.76;70.22;102311.94;1053447;28;795;-63
2021/11/18 02:36:09;;;;;;;;;;;;;;;14.77;70.25;102313.66;1052919;28;706;-63
2021/11/18 02:36:59;;;;;;;;;;;;;;;14.76;70.16;102311.94;1054365;28;1697;-62
2021/11/18 02:37:49;;;;;;;;;;;;;;;14.76;70.20;102314.63;1056924;28;1981;-62
2021/11/18 02:38:40;;;;;;;;;;;;;;;14.76;70.59;102314.63;1056611;28;1714;-62
2021/11/18 02:39:30;;;;;;;;;;;;;;;14.77;69.97;102312.78;1056459;28;948;-62
2021/11/18 02:40:21;;;;;;;;;;;;;;;14.76;70.43;102314.63;1057157;28;731;-63
2021/11/18 02:41:11;;;;;;;;;;;;;;;14.76;70.52;102317.28;1056770;28;766;-63
2021/11/18 02:42:02;;;;;;;;;;;;;;;14.77;69.96;102316.34;1057159;28;618;-63
2021/11/18 02:42:52;;;;;;;;;;;;;;;14.76;70.67;102321.78;1052242;28;1014;-63
2021/11/18 02:43:43;;;;;;;;;;;;;;;14.75;70.67;102310.19;1052127;28;622;-63
2021/11/18 02:44:33;;;;;;;;;;;;;;;14.75;69.85;102306.66;1056164;28;650;-63
2021/11/18 02:45:24;;;;;;;;;;;;;;;14.75;70.35;102310.19;1057079;28;778;-63
2021/11/18 02:46:14;;;;;;;;;;;;;;;14.75;70.59;102309.34;1056883;28;665;-62
2021/11/18 02:47:11;;;;;;;;;;;;;;;14.75;70.73;102312.00;1053348;28;954;-63
2021/11/18 02:48:01;;;;;;;;;;;;;;;14.74;70.13;102321.88;1053370;28;766;-63
2021/11/18 02:48:52;;;;;;;;;;;;;;;14.74;70.60;102311.16;1052982;28;865;-62
2021/11/18 02:49:43;;;;;;;;;;;;;;;14.73;70.69;102314.78;1052752;28;670;-63
2021/11/18 02:50:33;;;;;;;;;;;;;;;14.73;70.48;102313.94;1053140;28;1293;-63
2021/11/18 02:51:23;;;;;;;;;;;;;;;14.73;70.27;102306.75;1052685;28;958;-63
2021/11/18 02:52:14;;;;;;;;;;;;;;;14.73;70.57;102308.56;1052973;28;776;-63
2021/11/18 02:53:04;;;;;;;;;;;;;;;14.74;70.02;102308.47;1052621;28;878;-62
2021/11/18 02:53:55;;;;;;;;;;;;;;;14.74;70.58;102311.16;1052904;28;735;-63
2021/11/18 02:54:45;;;;;;;;;;;;;;;14.74;70.62;102307.59;1052460;28;669;-63
2021/11/18 02:55:36;;;;;;;;;;;;;;;14.73;70.16;102312.09;1050029;28;716;-63
2021/11/18 02:56:29;;;;;;;;;;;;;;;14.73;70.50;102312.09;1048717;28;732;-63
2021/11/18 02:57:19;;;;;;;;;;;;;;;14.73;70.69;102320.16;1056778;28;779;-60
2021/11/18 02:58:10;;;;;;;;;;;;;;;14.73;70.03;102317.47;1057062;28;711;-62
2021/11/18 02:59:00;;;;;;;;;;;;;;;14.73;70.61;102319.28;1056666;28;724;-62
2021/11/18 02:59:51;;;;;;;;;;;;;;;14.73;70.64;102321.97;1057067;28;712;-62
2021/11/18 03:00:41;;;;;;;;;;;;;;;14.73;70.74;102321.97;1056615;28;716;-62
2021/11/18 03:01:31;;;;;;;;;;;;;;;14.72;70.10;102310.38;1056808;28;722;-62
2021/11/18 03:02:22;;;;;;;;;;;;;;;14.74;70.16;102312.97;1055686;28;2058;-62
2021/11/18 03:03:12;;;;;;;;;;;;;;;14.73;69.97;102313.94;1056754;28;1695;-62
2021/11/18 03:04:03;;;;;;;;;;;;;;;14.72;70.55;102309.50;1057061;28;711;-62
2021/11/18 03:04:53;;;;;;;;;;;;;;;14.73;70.30;102306.75;1056908;28;626;-62
2021/11/18 03:05:44;;;;;;;;;;;;;;;14.72;70.13;102310.38;1056930;28;860;-61
2021/11/18 03:06:34;;;;;;;;;;;;;;;14.73;70.12;102311.25;1053522;28;653;-62
2021/11/18 03:07:24;;;;;;;;;;;;;;;14.72;70.20;102310.38;1051938;28;812;-62
2021/11/18 03:08:16;;;;;;;;;;;;;;;14.71;70.59;102308.66;1057528;28;825;-62
2021/11/18 03:09:07;;;;;;;;;;;;;;;14.71;70.06;102313.16;1057028;28;703;-62
2021/11/18 03:09:57;;;;;;;;;;;;;;;14.70;70.20;102306.91;1056679;28;937;-62
2021/11/18 03:10:48;;;;;;;;;;;;;;;14.70;69.97;102303.38;1056931;28;714;-63
2021/11/18 03:11:38;;;;;;;;;;;;;;;14.71;70.14;102305.97;1056931;28;704;-63
2021/11/18 03:12:29;;;;;;;;;;;;;;;14.70;70.53;102303.38;1056988;28;1014;-63
2021/11/18 03:13:19;;;;;;;;;;;;;;;14.69;70.65;102305.19;1052354;28;712;-64
2021/11/18 03:14:10;;;;;;;;;;;;;;;14.70;70.51;102306.91;1051842;28;969;-63
2021/11/18 03:15:00;;;;;;;;;;;;;;;14.69;70.07;102302.50;1051638;28;749;-63
2021/11/18 03:15:51;;;;;;;;;;;;;;;14.69;69.93;102302.50;1052408;28;665;-63
2021/11/18 03:16:41;;;;;;;;;;;;;;;14.69;70.50;102307.88;1052985;28;1789;-63
2021/11/18 03:17:31;;;;;;;;;;;;;;;14.70;70.59;102300.69;1053013;28;1906;-63
2021/11/18 03:18:23;;;;;;;;;;;;;;;14.69;70.43;102299.81;1052145;28;770;-63
2021/11/18 03:19:13;;;;;;;;;;;;;;;14.69;70.64;102302.50;1052524;28;736;-64
2021/11/18 03:20:03;;;;;;;;;;;;;;;14.71;70.08;102302.41;1052018;28;726;-64
2021/11/18 03:20:54;;;;;;;;;;;;;;;14.70;69.88;102306.91;1052101;28;725;-63
2021/11/18 03:21:44;;;;;;;;;;;;;;;14.69;70.66;102304.34;1051865;28;611;-64
2021/11/18 03:22:35;;;;;;;;;;;;;;;14.69;69.95;102307.03;1051989;28;844;-64
2021/11/18 03:23:25;;;;;;;;;;;;;;;14.68;70.22;102305.31;1051785;28;723;-64
2021/11/18 03:24:16;;;;;;;;;;;;;;;14.68;70.54;102307.97;1051961;28;749;-63
2021/11/18 03:25:06;;;;;;;;;;;;;;;14.69;70.00;102312.41;1052231;28;1834;-64
2021/11/18 03:25:56;;;;;;;;;;;;;;;14.68;70.09;102307.97;1053103;28;793;-63
2021/11/18 03:26:47;;;;;;;;;;;;;;;14.67;70.04;102309.81;1053196;28;888;-63
2021/11/18 03:27:37;;;;;;;;;;;;;;;14.67;70.42;102309.81;1052949;28;1008;-63
2021/11/18 03:28:29;;;;;;;;;;;;;;;14.68;70.29;102307.97;1053140;28;907;-63
2021/11/18 03:29:19;;;;;;;;;;;;;;;14.68;70.21;102308.84;1053191;28;750;-63
2021/11/18 03:30:10;;;;;;;;;;;;;;;14.68;69.95;102311.53;1053265;28;745;-63
2021/11/18 03:31:00;;;;;;;;;;;;;;;14.69;70.14;102313.22;1053060;28;877;-62
2021/11/18 03:31:51;;;;;;;;;;;;;;;14.68;70.42;102314.22;1053187;28;673;-62
2021/11/18 03:32:41;;;;;;;;;;;;;;;14.68;70.35;102314.22;1053210;28;848;-62
2021/11/18 03:33:31;;;;;;;;;;;;;;;14.67;70.48;102322.34;1053239;28;680;-62
2021/11/18 03:34:22;;;;;;;;;;;;;;;14.67;71.01;102320.53;1053275;28;723;-62
2021/11/18 03:35:13;;;;;;;;;;;;;;;14.66;70.59;102312.56;1053120;28;785;-62
2021/11/18 03:36:03;;;;;;;;;;;;;;;14.67;69.96;102314.31;1053301;28;1686;-62
2021/11/18 03:36:54;;;;;;;;;;;;;;;14.67;70.19;102315.16;1056792;28;917;-63
2021/11/18 03:37:44;;;;;;;;;;;;;;;14.66;70.41;102318.81;1056903;28;1958;-63
2021/11/18 03:38:34;;;;;;;;;;;;;;;14.65;70.10;102314.38;1056739;28;669;-62
2021/11/18 03:39:25;;;;;;;;;;;;;;;14.65;70.05;102306.34;1056920;28;711;-63
2021/11/18 03:40:15;;;;;;;;;;;;;;;14.66;70.47;102309.91;1056715;28;812;-63
2021/11/18 03:41:06;;;;;;;;;;;;;;;14.65;70.09;102303.66;1056727;28;927;-63
2021/11/18 03:41:56;;;;;;;;;;;;;;;14.65;69.82;102303.66;1056643;28;649;-63
2021/11/18 03:42:47;;;;;;;;;;;;;;;14.65;69.97;102309.03;1056684;28;1544;-62
2021/11/18 03:43:37;;;;;;;;;;;;;;;14.64;70.50;102301.94;1056565;28;822;-63
2021/11/18 03:44:28;;;;;;;;;;;;;;;14.65;70.17;102302.78;1056770;28;618;-63
2021/11/18 03:45:18;;;;;;;;;;;;;;;14.64;69.99;102296.56;1056912;28;732;-63
2021/11/18 03:46:08;;;;;;;;;;;;;;;14.65;70.44;102305.47;1056771;28;816;-63
2021/11/18 03:46:59;;;;;;;;;;;;;;;14.64;70.58;102301.06;1053219;28;724;-63
2021/11/18 03:47:49;;;;;;;;;;;;;;;14.63;70.43;102300.19;1052433;28;792;-63
2021/11/18 03:48:40;;;;;;;;;;;;;;;14.63;70.19;102302.88;1052663;28;618;-63
2021/11/18 03:49:30;;;;;;;;;;;;;;;14.63;70.74;102302.03;1052292;28;919;-63
2021/11/18 03:50:21;;;;;;;;;;;;;;;14.64;70.04;102301.94;1052275;28;780;-62
2021/11/18 03:51:11;;;;;;;;;;;;;;;14.64;70.08;102303.75;1054005;28;1687;-62
2021/11/18 03:52:01;;;;;;;;;;;;;;;14.62;70.54;102300.28;1052213;28;726;-63
2021/11/18 03:52:52;;;;;;;;;;;;;;;14.63;70.33;102307.38;1051885;28;700;-63
2021/11/18 03:53:42;;;;;;;;;;;;;;;14.63;70.00;102300.19;1055766;28;838;-63
2021/11/18 03:54:33;;;;;;;;;;;;;;;14.62;70.52;102306.53;1056666;28;603;-62
2021/11/18 03:55:23;;;;;;;;;;;;;;;14.63;70.23;102308.25;1056529;28;809;-62
2021/11/18 03:56:14;;;;;;;;;;;;;;;14.62;70.53;102302.97;1052927;28;1799;-62
2021/11/18 03:57:04;;;;;;;;;;;;;;;14.62;70.20;102305.66;1052035;28;708;-61
2021/11/18 03:57:54;;;;;;;;;;;;;;;14.61;70.53;102296.75;1052209;28;1890;-62
2021/11/18 03:58:45;;;;;;;;;;;;;;;14.61;70.07;102302.09;1052128;28;681;-62
2021/11/18 03:59:36;;;;;;;;;;;;;;;14.62;70.34;102306.53;1052174;28;694;-62
2021/11/18 04:00:26;;;;;;;;;;;;;;;14.62;70.52;102301.16;1051965;28;2022;-60
2021/11/18 04:01:16;;;;;;;;;;;;;;;14.61;70.33;102307.47;1052358;28;845;-62
2021/11/18 04:02:07;;;;;;;;;;;;;;;14.61;70.50;102302.09;1052576;28;867;-62
2021/11/18 04:02:57;;;;;;;;;;;;;;;14.62;70.90;102311.03;1052186;28;1403;-62
2021/11/18 04:03:52;;;;;;;;;;;;;;;14.62;70.54;102303.84;1052606;28;672;-61
2021/11/18 04:04:42;;;;;;;;;;;;;;;14.61;70.99;102312.84;1052480;28;1978;-61
2021/11/18 04:05:32;;;;;;;;;;;;;;;14.61;70.23;102302.09;1052447;28;677;-61
2021/11/18 04:06:23;;;;;;;;;;;;;;;14.61;70.43;102299.41;1052538;28;880;-61
2021/11/18 04:07:13;;;;;;;;;;;;;;;14.61;70.32;102301.25;1052350;28;701;-61
2021/11/18 04:08:04;;;;;;;;;;;;;;;14.60;70.26;102300.38;1052438;28;806;-61
2021/11/18 04:08:54;;;;;;;;;;;;;;;14.59;70.44;102304.88;1052584;28;782;-61
2021/11/18 04:09:44;;;;;;;;;;;;;;;14.58;70.31;102300.47;1052438;28;602;-61
2021/11/18 04:10:35;;;;;;;;;;;;;;;14.59;70.49;102301.31;1052610;28;914;-61
2021/11/18 04:11:25;;;;;;;;;;;;;;;14.60;70.10;102303.06;1052391;28;713;-61
2021/11/18 04:12:16;;;;;;;;;;;;;;;14.60;70.21;102297.69;1052518;28;774;-61
2021/11/18 04:13:06;;;;;;;;;;;;;;;14.59;70.77;102299.50;1052324;28;799;-61
2021/11/18 04:13:57;;;;;;;;;;;;;;;14.58;70.25;102292.41;1052416;28;766;-61
2021/11/18 04:14:47;;;;;;;;;;;;;;;14.59;70.49;102301.31;1052592;28;749;-60
2021/11/18 04:15:37;;;;;;;;;;;;;;;14.59;70.26;102306.69;1052037;28;1644;-62
2021/11/18 04:16:28;;;;;;;;;;;;;;;14.58;70.03;102305.81;1052435;28;875;-62
2021/11/18 04:17:18;;;;;;;;;;;;;;;14.59;70.60;102309.38;1052222;28;754;-62
2021/11/18 04:18:09;;;;;;;;;;;;;;;14.59;70.47;102312.94;1052380;28;671;-62
2021/11/18 04:18:59;;;;;;;;;;;;;;;14.59;70.47;102309.38;1051972;28;830;-62
2021/11/18 04:19:49;;;;;;;;;;;;;;;14.59;70.02;102317.41;1051759;28;727;-61
2021/11/18 04:20:40;;;;;;;;;;;;;;;14.60;70.09;102316.47;1052283;28;746;-61
2021/11/18 04:21:32;;;;;;;;;;;;;;;14.60;69.91;102319.16;1052218;28;631;-61
2021/11/18 04:22:22;;;;;;;;;;;;;;;14.59;70.13;102315.59;1052081;28;823;-61
2021/11/18 04:23:12;;;;;;;;;;;;;;;14.58;70.41;102315.69;1052217;28;770;-63
2021/11/18 04:24:03;;;;;;;;;;;;;;;14.57;70.45;102314.81;1052524;28;704;-63
2021/11/18 04:24:53;;;;;;;;;;;;;;;14.56;70.78;102318.47;1052111;28;837;-61
2021/11/18 04:25:44;;;;;;;;;;;;;;;14.56;71.02;102310.41;1052351;28;634;-61